Time;durP1;ratioP1;P1;durP2;ratioP2;P2;SDS_P1;SDS_P2;PMS_P1;PMS_P2;Temp;Humidity;BMP_temperature;BMP_pressure;BME280_temperature;BME280_humidity;BME280_pressure;Samples;Min_cycle;Max_cycle;Signal;HPM_P1;HPM_P2
2021/05/09 00:02:09;;;;;;;5.65;3.00;;;;;;;;;;4955844;28;20672;-80
2021/05/09 00:04:54;;;;;;;5.22;2.97;;;;;;;;;;4958115;28;20030;-80
2021/05/09 00:07:39;;;;;;;9.02;3.33;;;;;;;;;;4963525;28;20101;-80
2021/05/09 00:10:24;;;;;;;5.72;3.42;;;;;;;;;;4957711;28;20037;-80
2021/05/09 00:13:10;;;;;;;4.50;2.67;;;;;;;;;;4965589;28;20485;-80
2021/05/09 00:15:56;;;;;;;6.65;2.80;;;;;;;;;;4963344;28;20052;-80
2021/05/09 00:18:41;;;;;;;7.15;3.30;;;;;;;;;;4961729;28;20311;-80
2021/05/09 00:21:27;;;;;;;6.25;3.22;;;;;;;;;;4964679;28;20117;-80
2021/05/09 00:24:12;;;;;;;6.00;2.97;;;;;;;;;;4956679;28;20358;-80
2021/05/09 00:26:57;;;;;;;5.78;3.05;;;;;;;;;;4964664;28;20058;-80
2021/05/09 00:29:42;;;;;;;3.95;2.47;;;;;;;;;;4972170;28;20393;-80
2021/05/09 00:32:28;;;;;;;7.25;2.90;;;;;;;;;;4955845;28;20369;-80
2021/05/09 00:35:13;;;;;;;5.05;3.03;;;;;;;;;;4962118;28;20019;-80
2021/05/09 00:37:58;;;;;;;5.75;2.75;;;;;;;;;;4967719;28;20456;-80
2021/05/09 00:40:44;;;;;;;5.68;3.20;;;;;;;;;;4960778;28;20465;-80
2021/05/09 00:43:29;;;;;;;6.50;3.28;;;;;;;;;;4962230;28;20018;-80
2021/05/09 00:46:14;;;;;;;6.07;3.15;;;;;;;;;;4959653;28;20026;-79
2021/05/09 00:49:01;;;;;;;5.70;2.47;;;;;;;;;;4963310;28;20406;-80
2021/05/09 00:51:50;;;;;;;4.80;2.53;;;;;;;;;;4957248;28;20045;-79
2021/05/09 00:55:01;;;;;;;3.63;2.40;;;;;;;;;;4960166;28;20030;-80
2021/05/09 00:57:47;;;;;;;4.13;2.75;;;;;;;;;;4955639;28;20035;-80
2021/05/09 01:00:32;;;;;;;4.68;2.60;;;;;;;;;;4946657;28;20043;-81
2021/05/09 01:03:26;;;;;;;7.05;2.45;;;;;;;;;;4958968;28;20433;-80
2021/05/09 01:06:12;;;;;;;5.07;2.70;;;;;;;;;;4967305;28;20062;-81
2021/05/09 01:08:58;;;;;;;3.60;2.00;;;;;;;;;;4958466;28;20067;-80
2021/05/09 01:11:43;;;;;;;5.88;2.50;;;;;;;;;;4959905;28;20513;-80
2021/05/09 01:14:29;;;;;;;3.83;2.47;;;;;;;;;;4959724;28;20586;-80
2021/05/09 01:17:14;;;;;;;3.58;2.22;;;;;;;;;;4956616;28;20420;-80
2021/05/09 01:20:05;;;;;;;8.63;3.55;;;;;;;;;;4962574;28;20106;-80
2021/05/09 01:22:52;;;;;;;4.63;2.50;;;;;;;;;;4962351;28;20088;-80
2021/05/09 01:25:37;;;;;;;3.08;2.03;;;;;;;;;;4966817;28;20090;-80
2021/05/09 01:28:23;;;;;;;5.45;2.78;;;;;;;;;;4959117;28;20497;-80
2021/05/09 01:31:08;;;;;;;6.10;2.55;;;;;;;;;;4964493;28;20153;-80
2021/05/09 01:33:53;;;;;;;3.45;2.05;;;;;;;;;;4962654;28;20626;-80
2021/05/09 01:36:38;;;;;;;4.90;2.40;;;;;;;;;;4958545;28;20118;-80
2021/05/09 01:39:24;;;;;;;4.72;2.42;;;;;;;;;;4962741;28;20117;-80
2021/05/09 01:42:09;;;;;;;4.50;2.22;;;;;;;;;;4965026;28;20022;-80
2021/05/09 01:44:55;;;;;;;3.85;2.90;;;;;;;;;;4948058;28;20046;-79
2021/05/09 01:47:41;;;;;;;3.75;2.28;;;;;;;;;;4968050;28;20022;-79
2021/05/09 01:50:26;;;;;;;4.63;2.10;;;;;;;;;;4956326;28;20035;-79
2021/05/09 01:53:11;;;;;;;4.90;2.28;;;;;;;;;;4963766;28;20018;-80
2021/05/09 01:55:56;;;;;;;5.85;2.33;;;;;;;;;;4969394;28;20101;-79
2021/05/09 01:58:42;;;;;;;3.58;1.70;;;;;;;;;;4954200;28;20023;-79
2021/05/09 02:01:27;;;;;;;5.68;2.28;;;;;;;;;;4960208;28;20034;-80
2021/05/09 02:04:12;;;;;;;4.55;2.45;;;;;;;;;;4960499;28;20026;-80
2021/05/09 02:06:57;;;;;;;6.32;2.40;;;;;;;;;;4954251;28;20030;-79
2021/05/09 02:09:42;;;;;;;3.88;2.10;;;;;;;;;;4956495;28;20093;-79
2021/05/09 02:12:28;;;;;;;4.00;2.30;;;;;;;;;;4967463;28;20019;-80
2021/05/09 02:15:13;;;;;;;4.35;2.00;;;;;;;;;;4953649;28;20030;-81
2021/05/09 02:17:58;;;;;;;3.92;2.20;;;;;;;;;;4958832;28;20027;-81
2021/05/09 02:20:43;;;;;;;3.67;2.42;;;;;;;;;;4962766;28;20081;-81
2021/05/09 02:23:29;;;;;;;3.90;2.17;;;;;;;;;;4970613;28;20253;-80
2021/05/09 02:26:14;;;;;;;4.40;2.10;;;;;;;;;;4957550;28;20042;-81
2021/05/09 02:28:59;;;;;;;4.75;2.10;;;;;;;;;;4970012;28;20031;-82
2021/05/09 02:31:44;;;;;;;3.28;2.20;;;;;;;;;;4960811;28;20434;-80
2021/05/09 02:34:30;;;;;;;3.00;1.80;;;;;;;;;;4966379;28;20372;-79
2021/05/09 02:37:15;;;;;;;2.95;1.98;;;;;;;;;;4959604;28;20026;-80
2021/05/09 02:40:03;;;;;;;7.10;2.35;;;;;;;;;;4955306;28;20030;-80
2021/05/09 02:42:50;;;;;;;2.53;1.90;;;;;;;;;;4960523;28;20439;-82
2021/05/09 02:45:35;;;;;;;4.25;2.08;;;;;;;;;;4958606;28;20026;-80
2021/05/09 02:48:20;;;;;;;2.83;1.98;;;;;;;;;;4954736;28;20027;-80
2021/05/09 02:51:06;;;;;;;3.78;2.10;;;;;;;;;;4959025;28;20047;-80
2021/05/09 02:53:51;;;;;;;4.90;2.10;;;;;;;;;;4966792;28;20049;-80
2021/05/09 02:56:36;;;;;;;3.80;2.20;;;;;;;;;;4963349;28;20034;-80
2021/05/09 02:59:21;;;;;;;6.50;2.15;;;;;;;;;;4960913;28;20019;-80
2021/05/09 03:02:07;;;;;;;4.82;2.53;;;;;;;;;;4960666;28;20106;-80
2021/05/09 03:04:52;;;;;;;6.47;2.35;;;;;;;;;;4967921;28;20014;-80
2021/05/09 03:07:37;;;;;;;3.90;1.98;;;;;;;;;;4957215;28;20065;-79
2021/05/09 03:10:22;;;;;;;3.90;2.20;;;;;;;;;;4965125;28;20077;-78
2021/05/09 03:13:07;;;;;;;3.95;2.50;;;;;;;;;;4958080;28;20026;-79
2021/05/09 03:15:53;;;;;;;6.47;2.10;;;;;;;;;;4963984;28;20019;-79
2021/05/09 03:18:38;;;;;;;6.68;2.83;;;;;;;;;;4963600;28;20037;-79
2021/05/09 03:21:23;;;;;;;5.93;2.47;;;;;;;;;;4964967;28;20081;-79
2021/05/09 03:24:12;;;;;;;3.88;2.10;;;;;;;;;;4957842;28;20058;-79
2021/05/09 03:26:57;;;;;;;5.25;3.00;;;;;;;;;;4976439;28;20039;-79
2021/05/09 03:29:42;;;;;;;4.97;3.00;;;;;;;;;;4970202;28;20088;-80
2021/05/09 03:32:28;;;;;;;4.65;2.30;;;;;;;;;;4962321;28;20076;-81
2021/05/09 03:35:13;;;;;;;4.63;2.67;;;;;;;;;;4965851;28;20067;-80
2021/05/09 03:37:59;;;;;;;4.43;2.55;;;;;;;;;;4956134;28;20015;-80
2021/05/09 03:40:44;;;;;;;5.18;2.58;;;;;;;;;;4967492;28;20123;-80
2021/05/09 03:43:29;;;;;;;3.47;2.22;;;;;;;;;;4964264;28;20069;-81
2021/05/09 03:46:14;;;;;;;3.05;2.17;;;;;;;;;;4964769;28;20359;-80
2021/05/09 03:49:00;;;;;;;4.57;2.45;;;;;;;;;;4956481;28;20113;-80
2021/05/09 03:51:45;;;;;;;6.20;2.45;;;;;;;;;;4966114;28;20514;-80
2021/05/09 03:54:30;;;;;;;3.47;2.45;;;;;;;;;;4967367;28;20108;-80
2021/05/09 03:57:15;;;;;;;4.05;2.42;;;;;;;;;;4959693;28;20022;-80
2021/05/09 04:00:01;;;;;;;3.17;2.20;;;;;;;;;;4963061;28;20030;-80
2021/05/09 04:02:46;;;;;;;2.80;1.98;;;;;;;;;;4957650;28;20074;-79
2021/05/09 04:05:31;;;;;;;6.28;2.70;;;;;;;;;;4956668;28;20033;-79
2021/05/09 04:08:16;;;;;;;5.13;2.60;;;;;;;;;;4965272;28;20157;-79
2021/05/09 04:11:02;;;;;;;6.78;2.60;;;;;;;;;;4972587;28;20038;-79
2021/05/09 04:13:48;;;;;;;4.65;2.65;;;;;;;;;;4946861;28;20030;-79
2021/05/09 04:16:33;;;;;;;5.00;2.40;;;;;;;;;;4968332;28;20026;-80
2021/05/09 04:19:19;;;;;;;3.67;2.28;;;;;;;;;;4968705;28;20732;-80
2021/05/09 04:22:06;;;;;;;5.43;2.30;;;;;;;;;;4966705;28;20027;-79
2021/05/09 04:24:51;;;;;;;5.65;2.53;;;;;;;;;;4981791;28;20022;-80
2021/05/09 04:27:36;;;;;;;6.50;2.50;;;;;;;;;;4959518;28;20066;-79
2021/05/09 04:30:22;;;;;;;3.78;2.28;;;;;;;;;;4960218;28;20058;-80
2021/05/09 04:33:07;;;;;;;6.90;2.65;;;;;;;;;;4972686;28;20488;-79
2021/05/09 04:35:52;;;;;;;4.13;2.28;;;;;;;;;;4954487;28;20041;-79
2021/05/09 04:38:38;;;;;;;5.75;2.30;;;;;;;;;;4962359;28;20074;-79
2021/05/09 04:41:23;;;;;;;7.93;2.70;;;;;;;;;;4966446;28;20045;-80
2021/05/09 04:44:08;;;;;;;3.47;2.33;;;;;;;;;;4953277;28;20015;-81
2021/05/09 04:46:53;;;;;;;3.88;2.20;;;;;;;;;;4961541;28;20428;-80
2021/05/09 04:49:38;;;;;;;5.00;2.35;;;;;;;;;;4969499;28;20022;-80
2021/05/09 04:52:24;;;;;;;5.00;2.40;;;;;;;;;;4962276;28;20065;-81
2021/05/09 04:55:09;;;;;;;5.03;2.20;;;;;;;;;;4963593;28;20030;-80
2021/05/09 04:57:54;;;;;;;3.10;2.17;;;;;;;;;;4967205;28;20354;-80
2021/05/09 05:00:39;;;;;;;7.07;2.38;;;;;;;;;;4966238;28;20034;-80
2021/05/09 05:03:25;;;;;;;5.75;2.80;;;;;;;;;;4960661;28;20018;-80
2021/05/09 05:06:10;;;;;;;6.05;2.65;;;;;;;;;;4960876;28;20066;-80
2021/05/09 05:08:55;;;;;;;9.27;2.83;;;;;;;;;;4961454;28;20026;-81
2021/05/09 05:11:40;;;;;;;8.13;2.63;;;;;;;;;;4968444;28;20030;-80
2021/05/09 05:14:25;;;;;;;4.70;2.38;;;;;;;;;;4959829;28;20061;-80
2021/05/09 05:17:11;;;;;;;5.75;2.50;;;;;;;;;;4957631;28;20019;-80
2021/05/09 05:19:56;;;;;;;5.30;2.50;;;;;;;;;;4958446;28;20086;-80
2021/05/09 05:22:41;;;;;;;7.47;2.35;;;;;;;;;;4961710;28;20114;-80
2021/05/09 05:25:26;;;;;;;6.15;2.78;;;;;;;;;;4969703;28;20117;-81
2021/05/09 05:28:11;;;;;;;5.00;3.05;;;;;;;;;;4959599;28;20039;-80
2021/05/09 05:30:56;;;;;;;6.43;2.92;;;;;;;;;;4962633;28;20031;-80
2021/05/09 05:33:42;;;;;;;6.75;2.85;;;;;;;;;;4962858;28;20117;-80
2021/05/09 05:36:28;;;;;;;14.73;9.48;;;;;;;;;;4970288;28;20026;-80
2021/05/09 05:39:14;;;;;;;9.52;4.80;;;;;;;;;;4956406;28;20117;-80
2021/05/09 05:42:00;;;;;;;5.85;3.13;;;;;;;;;;4958213;28;20418;-80
2021/05/09 05:44:45;;;;;;;5.97;2.67;;;;;;;;;;4960450;28;20034;-80
2021/05/09 05:47:30;;;;;;;5.53;2.42;;;;;;;;;;4964542;28;20033;-79
2021/05/09 05:50:16;;;;;;;5.28;2.58;;;;;;;;;;4961424;28;20033;-80
2021/05/09 05:53:02;;;;;;;3.90;2.30;;;;;;;;;;4951771;28;20026;-80
2021/05/09 05:55:47;;;;;;;4.18;2.22;;;;;;;;;;4970069;28;20015;-80
2021/05/09 05:58:32;;;;;;;3.25;2.20;;;;;;;;;;4966318;28;20038;-81
2021/05/09 06:01:18;;;;;;;4.72;2.20;;;;;;;;;;4956519;28;20026;-80
2021/05/09 06:04:03;;;;;;;3.28;2.40;;;;;;;;;;4971339;28;20478;-81
2021/05/09 06:06:49;;;;;;;2.88;2.28;;;;;;;;;;4959404;28;20736;-81
2021/05/09 06:09:34;;;;;;;3.13;2.15;;;;;;;;;;4958445;28;20030;-80
2021/05/09 06:12:19;;;;;;;3.45;2.17;;;;;;;;;;4958072;28;20074;-80
2021/05/09 06:15:04;;;;;;;5.70;2.72;;;;;;;;;;4959639;28;20649;-82
2021/05/09 06:17:50;;;;;;;3.75;2.92;;;;;;;;;;4966587;28;20023;-80
2021/05/09 06:20:36;;;;;;;2.90;1.95;;;;;;;;;;4955636;28;20038;-80
2021/05/09 06:23:24;;;;;;;4.40;3.00;;;;;;;;;;4959604;28;20034;-81
2021/05/09 06:26:09;;;;;;;3.40;2.17;;;;;;;;;;4974245;28;20069;-81
2021/05/09 06:28:55;;;;;;;6.47;2.67;;;;;;;;;;4967326;28;20045;-80
2021/05/09 06:31:40;;;;;;;3.67;2.47;;;;;;;;;;4959869;28;20067;-80
2021/05/09 06:34:25;;;;;;;5.35;2.53;;;;;;;;;;4959663;28;20069;-80
2021/05/09 06:37:13;;;;;;;3.50;2.03;;;;;;;;;;4957953;28;20056;-80
2021/05/09 06:39:59;;;;;;;4.37;2.33;;;;;;;;;;4955412;28;20082;-79
2021/05/09 06:42:44;;;;;;;3.67;2.10;;;;;;;;;;4967107;28;20085;-80
2021/05/09 06:45:31;;;;;;;6.00;2.80;;;;;;;;;;4956748;28;20037;-80
2021/05/09 06:48:17;;;;;;;4.32;2.30;;;;;;;;;;4955423;28;20500;-80
2021/05/09 06:51:02;;;;;;;3.33;2.38;;;;;;;;;;4953544;28;20042;-79
2021/05/09 06:53:48;;;;;;;6.43;2.72;;;;;;;;;;4962574;28;20020;-80
2021/05/09 06:56:33;;;;;;;6.47;3.10;;;;;;;;;;4959504;28;20034;-79
2021/05/09 06:59:18;;;;;;;6.47;2.67;;;;;;;;;;4961604;28;20026;-80
2021/05/09 07:02:03;;;;;;;5.45;3.13;;;;;;;;;;4955218;28;20381;-79
2021/05/09 07:04:49;;;;;;;5.75;2.50;;;;;;;;;;4965486;28;20110;-79
2021/05/09 07:07:50;;;;;;;7.30;2.70;;;;;;;;;;4945701;28;20033;-79
2021/05/09 07:10:36;;;;;;;5.07;2.40;;;;;;;;;;4961785;28;20137;-80
2021/05/09 07:13:21;;;;;;;10.43;2.47;;;;;;;;;;4964203;28;20113;-82
2021/05/09 07:16:07;;;;;;;7.07;2.60;;;;;;;;;;4962389;28;20050;-80
2021/05/09 07:18:52;;;;;;;6.43;2.53;;;;;;;;;;4958603;28;20034;-80
2021/05/09 07:21:44;;;;;;;7.20;2.78;;;;;;;;;;4956558;28;20023;-80
2021/05/09 07:24:29;;;;;;;2.90;2.38;;;;;;;;;;4968208;28;20022;-80
2021/05/09 07:27:14;;;;;;;4.15;2.38;;;;;;;;;;4950612;28;20043;-79
2021/05/09 07:29:59;;;;;;;4.97;2.50;;;;;;;;;;4963123;28;20026;-81
2021/05/09 07:32:45;;;;;;;5.15;2.90;;;;;;;;;;4953888;28;20027;-80
2021/05/09 07:35:30;;;;;;;6.78;2.65;;;;;;;;;;4955252;28;20073;-79
2021/05/09 07:38:15;;;;;;;3.80;2.42;;;;;;;;;;4955046;28;20034;-80
2021/05/09 07:41:01;;;;;;;2.90;2.55;;;;;;;;;;4961929;28;20382;-80
2021/05/09 07:43:47;;;;;;;6.13;2.70;;;;;;;;;;4952576;28;20038;-80
2021/05/09 07:46:32;;;;;;;6.13;2.63;;;;;;;;;;4958665;28;20042;-77
2021/05/09 07:49:18;;;;;;;5.07;2.45;;;;;;;;;;4965479;28;20101;-79
2021/05/09 07:52:03;;;;;;;5.57;2.58;;;;;;;;;;4964050;28;20074;-79
2021/05/09 07:54:48;;;;;;;6.57;2.60;;;;;;;;;;4964386;28;20037;-79
2021/05/09 07:57:34;;;;;;;4.68;1.90;;;;;;;;;;4966332;28;20050;-79
2021/05/09 08:00:20;;;;;;;2.65;1.60;;;;;;;;;;4963895;28;20109;-78
2021/05/09 08:03:05;;;;;;;2.08;1.50;;;;;;;;;;4950518;28;20586;-77
2021/05/09 08:05:50;;;;;;;1.50;1.40;;;;;;;;;;4969464;28;20499;-77
2021/05/09 08:08:36;;;;;;;5.57;4.28;;;;;;;;;;4959960;28;20033;-78
2021/05/09 08:11:21;;;;;;;4.13;3.10;;;;;;;;;;4962044;28;20737;-78
2021/05/09 08:14:06;;;;;;;2.75;1.60;;;;;;;;;;4957275;28;20023;-78
2021/05/09 08:16:53;;;;;;;4.40;1.65;;;;;;;;;;4967903;28;20499;-77
2021/05/09 08:19:38;;;;;;;3.58;1.70;;;;;;;;;;4961141;28;20121;-78
2021/05/09 08:22:23;;;;;;;4.45;1.98;;;;;;;;;;4959085;28;20025;-78
2021/05/09 08:25:08;;;;;;;3.30;1.88;;;;;;;;;;4960787;28;20366;-78
2021/05/09 08:27:54;;;;;;;4.00;1.77;;;;;;;;;;4972571;28;20022;-79
2021/05/09 08:30:39;;;;;;;2.03;1.58;;;;;;;;;;4957619;28;20643;-78
2021/05/09 08:33:24;;;;;;;1.67;1.55;;;;;;;;;;4971693;28;20023;-79
2021/05/09 08:36:10;;;;;;;2.60;2.03;;;;;;;;;;4954894;28;20026;-78
2021/05/09 08:39:28;;;;;;;;;;;;;;;;;;;;;
2021/05/09 08:42:15;;;;;;;3.67;1.52;;;;;;;;;;4870062;28;20492;-79
2021/05/09 08:45:00;;;;;;;1.63;1.52;;;;;;;;;;4948859;28;20114;-79
2021/05/09 08:47:45;;;;;;;3.20;1.60;;;;;;;;;;4955035;28;20420;-79
2021/05/09 08:50:31;;;;;;;2.90;1.98;;;;;;;;;;4961046;28;20037;-79
2021/05/09 08:53:19;;;;;;;3.53;1.88;;;;;;;;;;4969879;28;20030;-79
2021/05/09 08:56:04;;;;;;;1.52;1.30;;;;;;;;;;4954797;28;20022;-78
2021/05/09 08:58:50;;;;;;;4.28;1.63;;;;;;;;;;4960236;28;20035;-78
2021/05/09 09:01:39;;;;;;;4.90;3.25;;;;;;;;;;4961030;28;20033;-79
2021/05/09 09:04:24;;;;;;;9.73;7.65;;;;;;;;;;4970441;28;20015;-78
2021/05/09 09:07:11;;;;;;;4.57;1.85;;;;;;;;;;4957707;28;20132;-78
2021/05/09 09:09:57;;;;;;;3.38;2.10;;;;;;;;;;4962131;28;20039;-78
2021/05/09 09:12:42;;;;;;;2.00;1.75;;;;;;;;;;4957472;28;20090;-78
2021/05/09 09:15:47;;;;;;;3.22;1.70;;;;;;;;;;4962728;28;20618;-77
2021/05/09 09:18:33;;;;;;;4.80;1.30;;;;;;;;;;4964272;28;20037;-78
2021/05/09 09:21:21;;;;;;;1.73;1.30;;;;;;;;;;4968429;28;20157;-78
2021/05/09 09:24:13;;;;;;;3.92;1.20;;;;;;;;;;4959008;28;20039;-77
2021/05/09 09:26:59;;;;;;;2.17;1.52;;;;;;;;;;4956898;28;20060;-78
2021/05/09 09:29:44;;;;;;;3.10;1.42;;;;;;;;;;4964730;28;20113;-78
2021/05/09 09:32:30;;;;;;;3.13;1.40;;;;;;;;;;4961944;28;20487;-79
2021/05/09 09:35:28;;;;;;;4.22;1.42;;;;;;;;;;4963812;28;20018;-79
2021/05/09 09:38:20;;;;;;;3.38;1.30;;;;;;;;;;4967390;28;20508;-78
2021/05/09 09:41:09;;;;;;;1.60;1.40;;;;;;;;;;4955376;28;20034;-80
2021/05/09 09:44:04;;;;;;;11.73;9.65;;;;;;;;;;4962608;28;20355;-80
2021/05/09 09:46:52;;;;;;;2.95;1.80;;;;;;;;;;4969258;28;20019;-79
2021/05/09 09:49:38;;;;;;;3.15;1.65;;;;;;;;;;4956925;28;20019;-79
2021/05/09 09:52:29;;;;;;;3.08;1.63;;;;;;;;;;4951994;28;20027;-79
2021/05/09 09:55:14;;;;;;;2.53;1.60;;;;;;;;;;4969521;28;20018;-77
2021/05/09 09:58:03;;;;;;;6.28;4.13;;;;;;;;;;4961006;28;20083;-78
2021/05/09 10:00:49;;;;;;;9.35;6.85;;;;;;;;;;4958635;28;20022;-78
2021/05/09 10:03:34;;;;;;;2.72;1.70;;;;;;;;;;4959173;28;20068;-79
2021/05/09 10:06:20;;;;;;;3.22;1.70;;;;;;;;;;4965713;28;20604;-78
2021/05/09 10:09:06;;;;;;;2.65;1.30;;;;;;;;;;4976585;28;20627;-78
2021/05/09 10:11:54;;;;;;;3.85;1.40;;;;;;;;;;4951874;28;20106;-79
2021/05/09 10:14:41;;;;;;;1.67;1.15;;;;;;;;;;4959719;28;20023;-79
2021/05/09 10:17:26;;;;;;;2.10;1.20;;;;;;;;;;4969257;28;20531;-79
2021/05/09 10:20:11;;;;;;;1.20;1.10;;;;;;;;;;4953614;28;20038;-79
2021/05/09 10:23:04;;;;;;;1.85;1.58;;;;;;;;;;4964489;28;20023;-79
2021/05/09 10:25:50;;;;;;;5.00;2.08;;;;;;;;;;4969095;28;20501;-78
2021/05/09 10:28:37;;;;;;;3.80;1.20;;;;;;;;;;4956679;28;21202;-78
2021/05/09 10:31:26;;;;;;;2.70;1.52;;;;;;;;;;4963125;28;20730;-78
2021/05/09 10:34:11;;;;;;;;;;;;;;;;;;4965358;28;20041;-78
2021/05/09 10:36:56;;;;;;;4.13;1.60;;;;;;;;;;4962804;28;19996;-78
2021/05/09 10:40:02;;;;;;;4.53;2.83;;;;;;;;;;4960439;28;20110;-78
2021/05/09 10:42:48;;;;;;;3.53;1.40;;;;;;;;;;4969982;28;20046;-78
2021/05/09 10:45:33;;;;;;;1.98;1.30;;;;;;;;;;4951373;28;20058;-79
2021/05/09 10:51:22;;;;;;;2.60;1.60;;;;;;;;;;4961698;28;20679;-79
2021/05/09 10:54:17;;;;;;;3.90;1.40;;;;;;;;;;4963283;28;20030;-78
2021/05/09 10:57:03;;;;;;;9.82;5.13;;;;;;;;;;4957990;28;20786;-79
2021/05/09 10:59:58;;;;;;;7.72;3.88;;;;;;;;;;4958813;28;20058;-80
2021/05/09 11:02:43;;;;;;;2.45;1.20;;;;;;;;;;4960092;28;20030;-80
2021/05/09 11:05:47;;;;;;;4.93;1.83;;;;;;;;;;4957942;28;20062;-78
2021/05/09 11:08:41;;;;;;;4.47;2.25;;;;;;;;;;4962684;28;20481;-79
2021/05/09 11:11:33;;;;;;;1.95;1.20;;;;;;;;;;4963940;28;20038;-79
2021/05/09 11:14:19;;;;;;;3.17;1.20;;;;;;;;;;4953369;28;20027;-79
2021/05/09 11:17:08;;;;;;;1.52;1.30;;;;;;;;;;4956561;28;20025;-79
2021/05/09 11:19:53;;;;;;;3.35;2.05;;;;;;;;;;4963518;28;20022;-79
2021/05/09 11:22:38;;;;;;;1.90;1.17;;;;;;;;;;4963069;28;20533;-79
2021/05/09 11:25:33;;;;;;;4.00;2.08;;;;;;;;;;4971991;28;20050;-79
2021/05/09 11:28:28;;;;;;;3.90;2.53;;;;;;;;;;4958361;28;20037;-79
2021/05/09 11:31:25;;;;;;;4.03;2.10;;;;;;;;;;4951006;28;20022;-79
2021/05/09 11:34:11;;;;;;;3.92;1.40;;;;;;;;;;4967966;28;20064;-79
2021/05/09 11:36:57;;;;;;;2.95;1.73;;;;;;;;;;4963571;28;20082;-79
2021/05/09 11:39:43;;;;;;;2.85;1.30;;;;;;;;;;4972166;28;20016;-79
2021/05/09 11:42:28;;;;;;;2.70;1.00;;;;;;;;;;4965567;28;20018;-79
2021/05/09 11:45:14;;;;;;;3.50;1.45;;;;;;;;;;4964839;28;20098;-78
2021/05/09 11:47:59;;;;;;;2.95;1.20;;;;;;;;;;4956149;28;20209;-78
2021/05/09 11:50:52;;;;;;;1.70;1.20;;;;;;;;;;4956272;28;20150;-78
2021/05/09 11:53:37;;;;;;;0.70;0.70;;;;;;;;;;4962219;28;20037;-78
2021/05/09 11:56:22;;;;;;;2.40;1.00;;;;;;;;;;4962487;28;20393;-78
2021/05/09 11:59:07;;;;;;;2.45;1.15;;;;;;;;;;4956205;28;20424;-79
2021/05/09 12:01:53;;;;;;;4.20;1.13;;;;;;;;;;4959110;28;20019;-79
2021/05/09 12:04:41;;;;;;;1.80;0.93;;;;;;;;;;4956045;28;20022;-79
2021/05/09 12:07:28;;;;;;;1.90;1.15;;;;;;;;;;4952661;28;20033;-79
2021/05/09 12:10:25;;;;;;;2.25;1.20;;;;;;;;;;4964686;28;20133;-79
2021/05/09 12:13:10;;;;;;;1.92;0.98;;;;;;;;;;4959719;28;20027;-79
2021/05/09 12:15:55;;;;;;;4.20;1.20;;;;;;;;;;4961679;28;20019;-79
2021/05/09 12:18:40;;;;;;;1.95;1.10;;;;;;;;;;4959650;28;20023;-80
2021/05/09 12:21:26;;;;;;;2.00;1.17;;;;;;;;;;4967654;28;20404;-79
2021/05/09 12:24:11;;;;;;;1.60;1.10;;;;;;;;;;4963314;28;20220;-79
2021/05/09 12:26:58;;;;;;;1.50;1.08;;;;;;;;;;4954694;28;20053;-79
2021/05/09 12:29:48;;;;;;;3.67;1.55;;;;;;;;;;4970830;28;20018;-79
2021/05/09 12:32:34;;;;;;;1.83;0.98;;;;;;;;;;4968075;28;20019;-79
2021/05/09 12:35:19;;;;;;;2.97;1.00;;;;;;;;;;4956204;28;20133;-79
2021/05/09 12:38:04;;;;;;;1.40;1.10;;;;;;;;;;4963111;28;20053;-79
2021/05/09 12:41:09;;;;;;;2.13;1.20;;;;;;;;;;4957291;28;20059;-79
2021/05/09 12:43:57;;;;;;;1.10;1.00;;;;;;;;;;4954714;28;20041;-78
2021/05/09 12:46:45;;;;;;;1.43;0.83;;;;;;;;;;4961838;28;20469;-79
2021/05/09 12:49:32;;;;;;;4.22;2.63;;;;;;;;;;4949314;28;20313;-79
2021/05/09 12:52:18;;;;;;;1.63;0.80;;;;;;;;;;4960038;28;20027;-79
2021/05/09 12:55:21;;;;;;;2.70;1.40;;;;;;;;;;4955605;28;20027;-79
2021/05/09 12:58:11;;;;;;;7.47;1.27;;;;;;;;;;4960887;28;20100;-79
2021/05/09 13:00:57;;;;;;;3.72;2.03;;;;;;;;;;4958894;28;20027;-79
2021/05/09 13:03:42;;;;;;;3.80;1.33;;;;;;;;;;4964570;28;20035;-80
2021/05/09 13:06:27;;;;;;;1.92;1.35;;;;;;;;;;4956179;28;20089;-79
2021/05/09 13:09:12;;;;;;;2.55;1.33;;;;;;;;;;4967224;28;20029;-79
2021/05/09 13:12:02;;;;;;;1.52;1.00;;;;;;;;;;4956896;28;20023;-80
2021/05/09 13:14:47;;;;;;;4.22;1.13;;;;;;;;;;4958076;28;20041;-82
2021/05/09 13:17:32;;;;;;;3.67;1.25;;;;;;;;;;4971374;28;20034;-80
2021/05/09 13:20:18;;;;;;;2.78;0.90;;;;;;;;;;4955733;28;20105;-79
2021/05/09 13:23:03;;;;;;;1.38;1.08;;;;;;;;;;4958086;28;20041;-79
2021/05/09 13:25:51;;;;;;;5.32;1.60;;;;;;;;;;4968485;28;20533;-79
2021/05/09 13:28:36;;;;;;;1.95;1.33;;;;;;;;;;4959329;28;20033;-79
2021/05/09 13:31:21;;;;;;;1.90;1.17;;;;;;;;;;4967910;28;20113;-79
2021/05/09 13:34:07;;;;;;;3.42;1.15;;;;;;;;;;4967751;28;20038;-79
2021/05/09 13:36:52;;;;;;;3.20;1.08;;;;;;;;;;4965213;28;20530;-80
2021/05/09 13:39:37;;;;;;;2.83;1.10;;;;;;;;;;4962721;28;20019;-79
2021/05/09 13:42:22;;;;;;;2.53;1.00;;;;;;;;;;4958893;28;20073;-80
2021/05/09 13:45:08;;;;;;;2.25;1.10;;;;;;;;;;4961213;28;20294;-79
2021/05/09 13:47:53;;;;;;;2.45;1.10;;;;;;;;;;4957054;28;20023;-80
2021/05/09 13:50:39;;;;;;;2.63;1.25;;;;;;;;;;4970252;28;20022;-79
2021/05/09 13:53:27;;;;;;;2.30;1.10;;;;;;;;;;4963729;28;20034;-79
2021/05/09 13:56:12;;;;;;;2.75;1.02;;;;;;;;;;4962748;28;20014;-79
2021/05/09 13:58:57;;;;;;;1.35;1.15;;;;;;;;;;4959289;28;20027;-79
2021/05/09 14:01:42;;;;;;;1.83;1.30;;;;;;;;;;4966529;28;20092;-79
2021/05/09 14:04:31;;;;;;;1.70;1.10;;;;;;;;;;4965119;28;21525;-80
2021/05/09 14:07:17;;;;;;;2.13;0.70;;;;;;;;;;4952036;28;20042;-77
2021/05/09 14:10:03;;;;;;;0.90;0.80;;;;;;;;;;4959289;28;20044;-78
2021/05/09 14:12:49;;;;;;;2.70;1.08;;;;;;;;;;4954801;28;20109;-80
2021/05/09 14:15:38;;;;;;;1.50;0.73;;;;;;;;;;4956916;28;20049;-80
2021/05/09 14:18:24;;;;;;;4.07;1.00;;;;;;;;;;4955761;28;20025;-80
2021/05/09 14:21:09;;;;;;;3.30;1.02;;;;;;;;;;4957121;28;20069;-80
2021/05/09 14:23:54;;;;;;;8.55;1.75;;;;;;;;;;4957522;28;20023;-79
2021/05/09 14:26:39;;;;;;;3.55;1.00;;;;;;;;;;4968452;28;20107;-78
2021/05/09 14:29:25;;;;;;;2.47;1.20;;;;;;;;;;4940196;28;20039;-79
2021/05/09 14:32:10;;;;;;;2.00;1.20;;;;;;;;;;4960377;28;20030;-79
2021/05/09 14:34:55;;;;;;;2.03;1.20;;;;;;;;;;4960711;28;20038;-79
2021/05/09 14:37:40;;;;;;;1.52;1.10;;;;;;;;;;4965310;28;20019;-79
2021/05/09 14:40:27;;;;;;;1.60;0.80;;;;;;;;;;4960064;28;20038;-79
2021/05/09 14:43:12;;;;;;;2.67;1.02;;;;;;;;;;4960128;28;20485;-79
2021/05/09 14:45:57;;;;;;;1.17;0.98;;;;;;;;;;4958561;28;20118;-79
2021/05/09 14:48:42;;;;;;;1.40;0.80;;;;;;;;;;4960453;28;20290;-80
2021/05/09 14:51:28;;;;;;;2.70;1.15;;;;;;;;;;4961180;28;20511;-79
2021/05/09 14:54:13;;;;;;;1.75;1.00;;;;;;;;;;4956319;28;20121;-79
2021/05/09 14:56:58;;;;;;;1.55;0.95;;;;;;;;;;4960174;28;20468;-79
2021/05/09 14:59:43;;;;;;;1.50;1.02;;;;;;;;;;4954306;28;20030;-79
2021/05/09 15:02:29;;;;;;;4.38;1.67;;;;;;;;;;4962993;28;20037;-79
2021/05/09 15:05:15;;;;;;;1.40;1.15;;;;;;;;;;4959758;28;20030;-79
2021/05/09 15:08:00;;;;;;;2.80;0.95;;;;;;;;;;4936950;28;20026;-79
2021/05/09 15:10:45;;;;;;;3.13;1.33;;;;;;;;;;4961088;28;20031;-80
2021/05/09 15:13:44;;;;;;;4.28;1.52;;;;;;;;;;4957650;28;20122;-80
2021/05/09 15:16:48;;;;;;;2.28;1.10;;;;;;;;;;4909411;29;20032;-79
2021/05/09 15:19:39;;;;;;;3.78;1.90;;;;;;;;;;4894534;29;20024;-80
2021/05/09 15:22:24;;;;;;;6.00;4.50;;;;;;;;;;4948493;28;20464;-79
2021/05/09 15:25:10;;;;;;;4.95;2.30;;;;;;;;;;4958537;28;20485;-77
2021/05/09 15:27:55;;;;;;;4.22;1.52;;;;;;;;;;4955757;28;20071;-78
2021/05/09 15:30:40;;;;;;;5.97;2.70;;;;;;;;;;4957240;28;20485;-79
2021/05/09 15:33:25;;;;;;;9.10;5.10;;;;;;;;;;4968184;28;20744;-79
2021/05/09 15:36:11;;;;;;;30.23;27.60;;;;;;;;;;4952493;28;20022;-79
2021/05/09 15:38:56;;;;;;;7.60;6.18;;;;;;;;;;4959507;28;20034;-79
2021/05/09 15:41:42;;;;;;;11.82;7.88;;;;;;;;;;4961339;28;20034;-80
2021/05/09 15:44:27;;;;;;;2.70;1.95;;;;;;;;;;4956040;28;20362;-79
2021/05/09 15:47:13;;;;;;;5.47;2.20;;;;;;;;;;4952942;28;20018;-80
2021/05/09 15:49:58;;;;;;;5.88;2.90;;;;;;;;;;4955652;28;20023;-80
2021/05/09 15:52:43;;;;;;;3.83;2.80;;;;;;;;;;4951508;28;20026;-79
2021/05/09 15:55:28;;;;;;;7.32;2.70;;;;;;;;;;4949696;28;20026;-82
2021/05/09 15:58:13;;;;;;;4.45;3.13;;;;;;;;;;4947647;28;20067;-79
2021/05/09 16:00:59;;;;;;;5.10;2.70;;;;;;;;;;4958044;28;20248;-80
2021/05/09 16:03:44;;;;;;;4.45;2.60;;;;;;;;;;4955862;28;20023;-79
2021/05/09 16:06:29;;;;;;;5.93;2.72;;;;;;;;;;4960148;28;20038;-79
2021/05/09 16:09:15;;;;;;;7.53;2.72;;;;;;;;;;4958975;28;20038;-83
2021/05/09 16:12:00;;;;;;;7.45;2.45;;;;;;;;;;4956964;28;20034;-83
2021/05/09 16:14:46;;;;;;;4.95;2.38;;;;;;;;;;4961649;28;20030;-84
2021/05/09 16:17:31;;;;;;;4.00;2.55;;;;;;;;;;4961944;28;20074;-83
2021/05/09 16:20:16;;;;;;;6.97;2.08;;;;;;;;;;4966707;28;20041;-85
2021/05/09 16:23:01;;;;;;;7.22;2.30;;;;;;;;;;4945513;28;20045;-84
2021/05/09 16:25:46;;;;;;;2.88;2.30;;;;;;;;;;4961499;28;20069;-84
2021/05/09 16:28:32;;;;;;;3.03;1.98;;;;;;;;;;4966398;28;20035;-83
2021/05/09 16:31:17;;;;;;;3.55;2.03;;;;;;;;;;4954001;28;20030;-84
2021/05/09 16:34:03;;;;;;;6.10;2.85;;;;;;;;;;4967364;28;20581;-84
2021/05/09 16:36:48;;;;;;;5.70;2.83;;;;;;;;;;4957285;28;20545;-84
2021/05/09 16:39:34;;;;;;;3.88;2.15;;;;;;;;;;4953836;28;20034;-83
2021/05/09 16:42:19;;;;;;;10.20;4.65;;;;;;;;;;4957715;28;20023;-82